Time;durP1;ratioP1;P1;durP2;ratioP2;P2;SDS_P1;SDS_P2;PMS_P1;PMS_P2;Temp;Humidity;BMP_temperature;BMP_pressure;BME280_temperature;BME280_humidity;BME280_pressure;Samples;Min_cycle;Max_cycle;Signal;HPM_P1;HPM_P2
2021/06/12 00:00:17;;;;;;;13.47;11.03;;;20.10;99.90;;;;;;4166806;28;20271;-78
2021/06/12 00:02:19;;;;;;;14.63;11.90;;;20.00;99.90;;;;;;4181959;28;20211;-76
2021/06/12 00:04:23;;;;;;;18.07;12.33;;;19.90;99.90;;;;;;4179193;28;20236;-77
2021/06/12 00:06:24;;;;;;;14.53;12.07;;;19.90;99.90;;;;;;4179629;28;20214;-78
2021/06/12 00:08:25;;;;;;;14.83;11.83;;;19.90;99.90;;;;;;4181529;28;20581;-78
2021/06/12 00:10:31;;;;;;;16.20;12.70;;;19.90;99.90;;;;;;4185563;28;20638;-78
2021/06/12 00:12:32;;;;;;;15.27;12.20;;;19.80;99.90;;;;;;4186705;28;20259;-78
2021/06/12 00:14:33;;;;;;;16.27;12.47;;;19.80;99.90;;;;;;4175906;28;20227;-78
2021/06/12 00:16:35;;;;;;;16.80;13.13;;;19.80;99.90;;;;;;4185671;28;20233;-78
2021/06/12 00:18:37;;;;;;;16.30;12.73;;;19.70;99.90;;;;;;4189162;28;20644;-78
2021/06/12 00:20:39;;;;;;;18.47;13.00;;;19.80;99.90;;;;;;4187673;28;20211;-79
2021/06/12 00:22:42;;;;;;;14.97;12.00;;;19.70;99.90;;;;;;4183563;28;20198;-78
2021/06/12 00:24:43;;;;;;;15.87;11.57;;;19.70;99.90;;;;;;4167245;28;20226;-79
2021/06/12 00:26:44;;;;;;;14.03;11.97;;;19.60;99.90;;;;;;4166221;28;20211;-78
2021/06/12 00:28:45;;;;;;;15.00;12.43;;;19.70;99.90;;;;;;4176918;28;20210;-77
2021/06/12 00:30:47;;;;;;;14.23;12.03;;;19.60;99.90;;;;;;4182419;28;20717;-78
2021/06/12 00:32:48;;;;;;;16.30;12.93;;;19.60;99.90;;;;;;4173821;28;20206;-78
2021/06/12 00:34:51;;;;;;;14.70;12.13;;;19.50;99.90;;;;;;4166648;28;20297;-79
2021/06/12 00:36:52;;;;;;;15.27;12.53;;;19.60;99.90;;;;;;4165912;28;20228;-78
2021/06/12 00:38:53;;;;;;;17.13;13.03;;;19.50;99.90;;;;;;4180487;28;20729;-79
2021/06/12 00:40:54;;;;;;;15.60;12.63;;;19.50;99.90;;;;;;4182130;28;20212;-78
2021/06/12 00:42:56;;;;;;;15.90;13.00;;;19.50;99.90;;;;;;4167464;28;20650;-78
2021/06/12 00:44:57;;;;;;;15.33;12.80;;;19.40;99.90;;;;;;4182274;28;20261;-79
2021/06/12 00:46:58;;;;;;;17.63;13.83;;;19.50;99.90;;;;;;4181943;28;20214;-77
2021/06/12 00:49:00;;;;;;;17.83;13.33;;;19.40;99.90;;;;;;4177962;28;20206;-78
2021/06/12 00:51:02;;;;;;;18.13;13.67;;;19.40;99.90;;;;;;4181460;28;20248;-79
2021/06/12 00:53:04;;;;;;;17.37;13.43;;;19.40;99.90;;;;;;4180604;28;20232;-79
2021/06/12 00:55:06;;;;;;;21.80;13.93;;;19.40;99.90;;;;;;4180870;28;20239;-79
2021/06/12 00:57:08;;;;;;;16.53;13.43;;;19.30;99.90;;;;;;4165244;28;20234;-79
2021/06/12 00:59:09;;;;;;;17.77;14.93;;;19.30;99.90;;;;;;4174252;28;20205;-78
2021/06/12 01:01:12;;;;;;;19.07;14.80;;;19.30;99.90;;;;;;4174675;28;20211;-78
2021/06/12 01:03:14;;;;;;;19.00;13.83;;;19.20;99.90;;;;;;4175383;28;20217;-78
2021/06/12 01:05:17;;;;;;;16.67;13.70;;;19.30;99.90;;;;;;4169828;28;20242;-78
2021/06/12 01:07:20;;;;;;;19.53;14.70;;;19.20;99.90;;;;;;4173582;28;20218;-79
2021/06/12 01:09:23;;;;;;;18.37;14.83;;;19.10;99.90;;;;;;4173614;28;20210;-78
2021/06/12 01:11:24;;;;;;;19.40;14.83;;;19.10;99.90;;;;;;4180624;28;20578;-78
2021/06/12 01:13:34;;;;;;;18.60;14.60;;;19.10;99.90;;;;;;4180715;28;20270;-78
2021/06/12 01:15:51;;;;;;;22.70;15.80;;;19.00;99.90;;;;;;4180471;28;20229;-78
2021/06/12 01:17:58;;;;;;;18.27;14.90;;;19.10;99.90;;;;;;4176390;28;20214;-79
2021/06/12 01:20:19;;;;;;;19.40;14.77;;;19.10;99.90;;;;;;4180832;28;20258;-79
2021/06/12 01:22:26;;;;;;;19.27;15.47;;;19.10;99.90;;;;;;4180490;28;20256;-79
2021/06/12 01:24:43;;;;;;;20.10;16.03;;;19.10;99.90;;;;;;4170655;28;20229;-79
2021/06/12 01:27:12;;;;;;;21.63;15.23;;;19.00;99.90;;;;;;4170493;28;20221;-78
2021/06/12 01:29:38;;;;;;;18.73;15.23;;;19.00;99.90;;;;;;4171188;28;20215;-78
2021/06/12 01:31:42;;;;;;;19.67;15.43;;;19.00;99.90;;;;;;4165747;28;20249;-78
2021/06/12 01:33:46;;;;;;;20.57;15.97;;;19.00;99.90;;;;;;4174775;28;20214;-79
2021/06/12 01:35:52;;;;;;;19.77;15.83;;;18.90;99.90;;;;;;4178854;28;20234;-79
2021/06/12 01:37:55;;;;;;;19.37;15.10;;;19.00;99.90;;;;;;4181411;28;20206;-77
2021/06/12 01:39:57;;;;;;;18.63;15.13;;;18.90;99.90;;;;;;4179691;28;20214;-79
2021/06/12 01:42:00;;;;;;;17.83;14.53;;;18.90;99.90;;;;;;4179290;28;20206;-79
2021/06/12 01:44:02;;;;;;;21.17;14.93;;;18.90;99.90;;;;;;4175985;28;20232;-77
2021/06/12 01:46:05;;;;;;;19.07;14.57;;;18.90;99.90;;;;;;4180540;28;20210;-78
2021/06/12 01:48:09;;;;;;;19.70;14.97;;;18.90;99.90;;;;;;4180465;28;20214;-78
2021/06/12 01:50:12;;;;;;;19.77;15.30;;;18.90;99.90;;;;;;4179173;28;20233;-79
2021/06/12 01:52:15;;;;;;;18.57;14.83;;;18.80;99.90;;;;;;4176710;28;20259;-78
2021/06/12 01:54:18;;;;;;;18.57;14.67;;;18.80;99.90;;;;;;4179555;28;20731;-78
2021/06/12 01:56:20;;;;;;;19.13;14.27;;;18.80;99.90;;;;;;4180645;28;20238;-76
2021/06/12 01:58:25;;;;;;;21.63;15.00;;;18.80;99.90;;;;;;4180766;28;20217;-78
2021/06/12 02:00:26;;;;;;;20.90;14.77;;;18.80;99.90;;;;;;4176915;28;20751;-78
2021/06/12 02:02:28;;;;;;;20.17;14.37;;;18.80;99.90;;;;;;4180460;28;20217;-79
2021/06/12 02:04:31;;;;;;;21.27;15.77;;;18.80;99.90;;;;;;4181112;28;20245;-78
2021/06/12 02:06:35;;;;;;;18.23;14.33;;;18.80;99.90;;;;;;4179969;28;20660;-79
2021/06/12 02:08:38;;;;;;;17.37;14.30;;;18.80;99.90;;;;;;4177740;28;20210;-78
2021/06/12 02:10:41;;;;;;;17.90;13.40;;;18.70;99.90;;;;;;4178002;28;20202;-79
2021/06/12 02:12:42;;;;;;;17.73;13.67;;;18.70;99.90;;;;;;4181300;28;20241;-78
2021/06/12 02:14:44;;;;;;;16.83;13.80;;;18.70;99.90;;;;;;4181084;28;20225;-79
2021/06/12 02:16:45;;;;;;;20.43;14.50;;;18.70;99.90;;;;;;4177919;28;20233;-78
2021/06/12 02:18:47;;;;;;;16.93;13.50;;;18.70;99.90;;;;;;4179962;28;20277;-78
2021/06/12 02:20:51;;;;;;;16.83;12.60;;;18.70;99.90;;;;;;4179824;28;20210;-77
2021/06/12 02:22:55;;;;;;;16.50;13.43;;;18.60;99.90;;;;;;4179702;28;20653;-78
2021/06/12 02:24:56;;;;;;;18.40;13.77;;;18.60;99.90;;;;;;4180812;28;20264;-77
2021/06/12 02:26:58;;;;;;;19.30;13.80;;;18.60;99.90;;;;;;4181144;28;20702;-78
2021/06/12 02:29:00;;;;;;;19.40;13.53;;;18.70;99.90;;;;;;4179855;28;20261;-78
2021/06/12 02:31:05;;;;;;;16.83;13.33;;;18.50;99.90;;;;;;4179800;28;20231;-78
2021/06/12 02:33:08;;;;;;;17.37;12.97;;;18.50;99.90;;;;;;4170329;28;20273;-78
2021/06/12 02:35:11;;;;;;;15.90;12.50;;;18.50;99.90;;;;;;4174541;28;20237;-78
2021/06/12 02:37:15;;;;;;;16.27;12.63;;;18.50;99.90;;;;;;4181878;28;20315;-79
2021/06/12 02:39:16;;;;;;;19.50;13.37;;;18.40;99.90;;;;;;4176016;28;20211;-78
2021/06/12 02:41:18;;;;;;;16.90;12.80;;;18.40;99.90;;;;;;4167263;28;20225;-78
2021/06/12 02:43:19;;;;;;;15.93;12.87;;;18.50;99.90;;;;;;4183618;28;20209;-77
2021/06/12 02:45:20;;;;;;;16.00;11.97;;;18.30;99.90;;;;;;4182780;28;20242;-79
2021/06/12 02:47:23;;;;;;;16.13;12.10;;;18.40;99.90;;;;;;4182509;28;20206;-79
2021/06/12 02:49:29;;;;;;;16.37;12.20;;;18.40;99.90;;;;;;4181928;28;20547;-79
2021/06/12 02:51:34;;;;;;;15.17;12.10;;;18.40;99.90;;;;;;4182498;28;20213;-79
2021/06/12 02:53:41;;;;;;;16.13;12.13;;;18.30;99.90;;;;;;4180674;28;20226;-78
2021/06/12 02:55:47;;;;;;;13.80;11.73;;;18.30;99.90;;;;;;4183065;28;20234;-79
2021/06/12 02:57:50;;;;;;;15.73;12.50;;;18.30;99.90;;;;;;4178109;28;20207;-79
2021/06/12 02:59:53;;;;;;;14.90;11.23;;;18.30;99.90;;;;;;4164943;28;20210;-79
2021/06/12 03:01:55;;;;;;;15.27;11.30;;;18.30;99.90;;;;;;4172647;28;20225;-79
2021/06/12 03:03:57;;;;;;;14.43;11.50;;;18.30;99.90;;;;;;4182359;28;20203;-79
2021/06/12 03:06:00;;;;;;;16.73;11.90;;;18.20;99.90;;;;;;4206230;22;20237;-77
2021/06/12 03:08:02;;;;;;;15.27;12.23;;;18.30;99.90;;;;;;4181100;28;20233;-77
2021/06/12 03:10:06;;;;;;;15.37;12.30;;;18.20;99.90;;;;;;4176125;28;20726;-76
2021/06/12 03:12:09;;;;;;;17.57;11.47;;;18.20;99.90;;;;;;4173711;28;20216;-77
2021/06/12 03:14:13;;;;;;;14.33;11.90;;;18.20;99.90;;;;;;4179780;28;20195;-77
2021/06/12 03:16:16;;;;;;;14.00;11.30;;;18.20;99.90;;;;;;4160977;28;20228;-77
2021/06/12 03:18:18;;;;;;;15.30;11.43;;;18.30;99.90;;;;;;4158634;28;20221;-76
2021/06/12 03:20:21;;;;;;;15.77;11.87;;;18.20;99.90;;;;;;4165045;28;20207;-76
2021/06/12 03:22:22;;;;;;;14.23;11.33;;;18.20;99.90;;;;;;4165295;28;20569;-77
2021/06/12 03:24:25;;;;;;;15.27;12.10;;;18.20;99.90;;;;;;4165020;28;20211;-77
2021/06/12 03:26:28;;;;;;;13.53;11.27;;;18.20;99.90;;;;;;4162529;28;20254;-77
2021/06/12 03:28:30;;;;;;;16.07;11.97;;;18.20;99.90;;;;;;4165890;28;20211;-77
2021/06/12 03:30:33;;;;;;;15.43;11.27;;;18.20;99.90;;;;;;4165033;28;20211;-77
2021/06/12 03:32:35;;;;;;;16.67;11.50;;;18.20;99.90;;;;;;4163316;28;20223;-77
2021/06/12 03:34:37;;;;;;;15.03;11.43;;;18.20;99.90;;;;;;4158957;28;20380;-76
2021/06/12 03:36:38;;;;;;;14.50;11.97;;;18.30;99.90;;;;;;4155278;28;20234;-76
2021/06/12 03:38:40;;;;;;;15.63;12.37;;;18.30;99.90;;;;;;4163646;28;20627;-75
2021/06/12 03:40:45;;;;;;;15.27;11.50;;;18.30;99.90;;;;;;4164909;28;20208;-75
2021/06/12 03:42:48;;;;;;;17.60;11.50;;;18.30;99.90;;;;;;4164065;28;20207;-76
2021/06/12 03:44:50;;;;;;;16.57;11.80;;;18.30;99.90;;;;;;4148216;28;20231;-75
2021/06/12 03:46:53;;;;;;;16.27;11.83;;;18.30;99.90;;;;;;4156563;28;20496;-78
2021/06/12 03:48:55;;;;;;;16.10;12.37;;;18.30;99.90;;;;;;4162714;28;20265;-75
2021/06/12 03:50:58;;;;;;;16.93;11.80;;;18.30;99.90;;;;;;4165489;28;20674;-75
2021/06/12 03:53:01;;;;;;;16.80;12.87;;;18.30;99.90;;;;;;4159941;28;20215;-75
2021/06/12 03:55:05;;;;;;;14.33;12.23;;;18.20;99.90;;;;;;4164920;28;20262;-75
2021/06/12 03:57:07;;;;;;;19.57;12.97;;;18.20;99.90;;;;;;4164585;28;20242;-75
2021/06/12 03:59:10;;;;;;;18.17;12.67;;;18.20;99.90;;;;;;4164941;28;20238;-75
2021/06/12 04:01:13;;;;;;;15.63;11.97;;;18.10;99.90;;;;;;4162511;28;20222;-75
2021/06/12 04:03:14;;;;;;;17.27;12.40;;;18.10;99.90;;;;;;4150939;28;20301;-75
2021/06/12 04:05:16;;;;;;;17.33;12.97;;;18.10;99.90;;;;;;4164655;28;20731;-76
2021/06/12 04:07:17;;;;;;;19.90;13.13;;;18.10;99.90;;;;;;4164658;28;20222;-75
2021/06/12 04:09:19;;;;;;;16.53;12.70;;;18.10;99.90;;;;;;4164135;28;20265;-75
2021/06/12 04:11:20;;;;;;;22.60;14.17;;;18.10;99.90;;;;;;4163402;28;20211;-75
2021/06/12 04:13:21;;;;;;;19.93;13.63;;;18.10;99.90;;;;;;4161473;28;20211;-76
2021/06/12 04:15:24;;;;;;;18.67;13.93;;;18.10;99.90;;;;;;4158846;28;20227;-76
2021/06/12 04:17:26;;;;;;;19.90;14.53;;;18.20;99.90;;;;;;4161638;28;20606;-75
2021/06/12 04:19:27;;;;;;;17.30;14.63;;;18.20;99.90;;;;;;4164243;28;20253;-75
2021/06/12 04:21:28;;;;;;;18.93;14.07;;;18.20;99.90;;;;;;4150513;28;20208;-75
2021/06/12 04:23:30;;;;;;;17.93;14.10;;;18.20;99.90;;;;;;4157485;28;20632;-75
2021/06/12 04:25:32;;;;;;;20.43;14.60;;;18.20;99.90;;;;;;4164532;28;20766;-77
2021/06/12 04:27:33;;;;;;;17.33;13.03;;;18.30;99.90;;;;;;4164290;28;20219;-77
2021/06/12 04:29:34;;;;;;;21.10;13.27;;;18.30;99.90;;;;;;4163547;28;20694;-77
2021/06/12 04:31:37;;;;;;;19.67;14.10;;;18.30;99.90;;;;;;4164809;28;20563;-77
2021/06/12 04:33:38;;;;;;;17.70;12.90;;;18.30;99.90;;;;;;4161546;28;20211;-77
2021/06/12 04:35:40;;;;;;;16.83;12.43;;;18.30;99.90;;;;;;4163373;28;20234;-77
2021/06/12 04:37:42;;;;;;;16.10;13.37;;;18.30;99.90;;;;;;4154701;28;20236;-77
2021/06/12 04:39:43;;;;;;;18.27;13.50;;;18.30;99.90;;;;;;4161651;28;20252;-77
2021/06/12 04:41:45;;;;;;;17.77;13.27;;;18.30;99.90;;;;;;4163463;28;20203;-77
2021/06/12 04:43:47;;;;;;;16.27;12.63;;;18.40;99.90;;;;;;4164308;28;20215;-77
2021/06/12 04:45:48;;;;;;;16.80;12.43;;;18.40;99.90;;;;;;4161910;28;20647;-77
2021/06/12 04:47:51;;;;;;;19.13;12.57;;;18.40;99.90;;;;;;4164697;28;20207;-77
2021/06/12 04:49:53;;;;;;;16.67;13.17;;;18.50;99.90;;;;;;4162778;28;20207;-77
2021/06/12 04:51:54;;;;;;;18.37;13.83;;;18.50;99.90;;;;;;4164218;28;20268;-77
2021/06/12 04:53:55;;;;;;;20.50;14.13;;;18.50;99.90;;;;;;4155638;28;20669;-77
2021/06/12 04:55:56;;;;;;;16.13;13.43;;;18.60;99.90;;;;;;4158395;28;20226;-77
2021/06/12 04:57:57;;;;;;;17.37;13.83;;;18.60;99.90;;;;;;4164474;28;20585;-77
2021/06/12 04:59:59;;;;;;;19.07;14.20;;;18.60;99.90;;;;;;4163248;28;20261;-77
2021/06/12 05:02:00;;;;;;;20.07;14.37;;;18.70;99.90;;;;;;4160800;28;20218;-77
2021/06/12 05:04:03;;;;;;;16.57;13.23;;;18.80;99.90;;;;;;4161973;28;20663;-79
2021/06/12 05:06:04;;;;;;;18.27;13.57;;;18.80;99.90;;;;;;4163982;28;20239;-80
2021/06/12 05:08:06;;;;;;;17.90;14.07;;;18.90;99.90;;;;;;4164908;28;20214;-77
2021/06/12 05:10:09;;;;;;;16.23;13.60;;;18.90;99.90;;;;;;4152244;28;20584;-77
2021/06/12 05:12:11;;;;;;;17.00;13.60;;;19.00;99.90;;;;;;4147716;28;20657;-77
2021/06/12 05:14:12;;;;;;;20.43;13.73;;;19.00;99.90;;;;;;4151254;28;20210;-77
2021/06/12 05:16:14;;;;;;;16.53;13.60;;;19.00;99.90;;;;;;4162903;28;20203;-77
2021/06/12 05:18:17;;;;;;;16.77;12.67;;;19.10;99.90;;;;;;4159321;28;20207;-77
2021/06/12 05:20:21;;;;;;;16.47;12.90;;;19.10;99.90;;;;;;4162889;28;20583;-77
2021/06/12 05:22:23;;;;;;;17.43;12.43;;;19.20;99.90;;;;;;4164137;28;20734;-77
2021/06/12 05:24:24;;;;;;;16.97;12.87;;;19.20;99.90;;;;;;4157094;28;20208;-77
2021/06/12 05:26:25;;;;;;;15.47;12.17;;;19.20;99.90;;;;;;4158155;28;20628;-77
2021/06/12 05:28:28;;;;;;;14.87;11.97;;;19.30;99.90;;;;;;4162275;28;20211;-76
2021/06/12 05:30:29;;;;;;;14.73;11.87;;;19.30;99.90;;;;;;4163530;28;20727;-77
2021/06/12 05:32:30;;;;;;;15.93;11.80;;;19.30;99.90;;;;;;4162735;28;20206;-77
2021/06/12 05:34:32;;;;;;;14.53;11.23;;;19.30;99.90;;;;;;4159732;28;20203;-76
2021/06/12 05:36:34;;;;;;;18.23;12.03;;;19.40;99.90;;;;;;4161861;28;20230;-76
2021/06/12 05:38:36;;;;;;;16.10;12.20;;;19.40;99.90;;;;;;4157185;28;20470;-76
2021/06/12 05:40:37;;;;;;;15.53;11.50;;;19.50;99.90;;;;;;4162483;28;20255;-77
2021/06/12 05:42:38;;;;;;;13.93;11.20;;;19.50;99.90;;;;;;4162270;28;20211;-77
2021/06/12 05:44:40;;;;;;;16.30;11.20;;;19.60;99.90;;;;;;4158319;28;20241;-77
2021/06/12 05:46:41;;;;;;;14.83;11.27;;;19.60;99.90;;;;;;4163096;28;20209;-77
2021/06/12 05:48:42;;;;;;;14.40;11.17;;;19.70;99.90;;;;;;4162965;28;20215;-75
2021/06/12 05:50:44;;;;;;;13.00;10.33;;;19.70;99.90;;;;;;4158333;28;20204;-76
2021/06/12 05:52:46;;;;;;;16.57;12.73;;;19.70;99.90;;;;;;4156568;28;20211;-77
2021/06/12 05:54:47;;;;;;;26.53;18.87;;;19.80;99.90;;;;;;4162396;28;20237;-75
2021/06/12 05:56:49;;;;;;;17.23;13.80;;;19.80;99.90;;;;;;4157311;28;20285;-74
2021/06/12 05:58:50;;;;;;;15.07;11.53;;;19.90;99.90;;;;;;4161369;28;20655;-76
2021/06/12 06:00:53;;;;;;;13.13;10.10;;;19.90;99.90;;;;;;4159219;28;20213;-75
2021/06/12 06:02:54;;;;;;;11.33;9.90;;;20.00;99.90;;;;;;4163936;28;20223;-77
2021/06/12 06:04:56;;;;;;;11.93;9.30;;;20.10;99.90;;;;;;4164077;28;20245;-75
2021/06/12 06:06:57;;;;;;;12.57;9.27;;;20.10;99.90;;;;;;4165214;28;20224;-77
2021/06/12 06:08:59;;;;;;;12.07;9.40;;;20.10;99.90;;;;;;4157106;28;20211;-78
2021/06/12 06:11:01;;;;;;;12.20;8.80;;;20.20;99.90;;;;;;4159783;28;20216;-75
2021/06/12 06:13:03;;;;;;;11.00;8.67;;;20.20;99.90;;;;;;4164438;28;20751;-74
2021/06/12 06:15:07;;;;;;;10.83;9.00;;;20.20;99.90;;;;;;4163372;28;20234;-78
2021/06/12 06:17:08;;;;;;;9.97;8.20;;;20.20;99.90;;;;;;4163798;28;20236;-75
2021/06/12 06:19:09;;;;;;;11.77;8.23;;;20.30;99.90;;;;;;4159418;28;20212;-75
2021/06/12 06:21:12;;;;;;;10.77;8.00;;;20.30;99.90;;;;;;4165984;28;20206;-76
2021/06/12 06:23:13;;;;;;;12.70;8.90;;;20.30;99.90;;;;;;4167866;28;20219;-76
2021/06/12 06:25:16;;;;;;;10.43;7.83;;;20.40;99.90;;;;;;4165599;28;20228;-74
2021/06/12 06:27:20;;;;;;;11.20;7.83;;;20.40;99.90;;;;;;4165520;28;20250;-72
2021/06/12 06:29:22;;;;;;;8.53;7.17;;;20.50;99.90;;;;;;4165576;28;20257;-74
2021/06/12 06:31:23;;;;;;;10.53;7.87;;;20.50;99.90;;;;;;4166417;28;20624;-75
2021/06/12 06:33:25;;;;;;;10.00;8.03;;;20.50;99.90;;;;;;4165549;28;20585;-76
2021/06/12 06:35:26;;;;;;;13.57;7.80;;;20.60;99.90;;;;;;4159786;28;20236;-77
2021/06/12 06:37:28;;;;;;;13.47;7.40;;;20.70;99.90;;;;;;4159703;28;20280;-76
2021/06/12 06:39:29;;;;;;;8.67;7.50;;;20.70;99.90;;;;;;4161887;28;20215;-77
2021/06/12 06:41:38;;;;;;;9.57;7.17;;;20.80;99.90;;;;;;4167481;28;20216;-78
2021/06/12 06:43:39;;;;;;;10.27;7.57;;;20.80;99.90;;;;;;4160403;28;20209;-75
2021/06/12 06:45:41;;;;;;;9.97;6.90;;;20.90;99.90;;;;;;4165459;28;20644;-76
2021/06/12 06:47:45;;;;;;;11.33;7.20;;;20.90;99.90;;;;;;4163445;28;20213;-74
2021/06/12 06:49:47;;;;;;;12.47;9.93;;;21.00;99.90;;;;;;4163120;28;20586;-76
2021/06/12 06:51:48;;;;;;;39.13;25.50;;;21.00;99.90;;;;;;4158012;28;20231;-74
2021/06/12 06:53:49;;;;;;;19.20;13.17;;;21.00;99.90;;;;;;4160642;28;20274;-75
2021/06/12 06:55:51;;;;;;;9.97;8.20;;;20.90;99.90;;;;;;4164958;28;20650;-77
2021/06/12 06:57:53;;;;;;;9.27;7.87;;;20.90;99.90;;;;;;4164876;28;20254;-74
2021/06/12 06:59:55;;;;;;;10.10;7.33;;;20.90;99.90;;;;;;4160976;28;20222;-76
2021/06/12 07:01:56;;;;;;;11.40;8.03;;;20.90;99.90;;;;;;4165322;28;20217;-76
2021/06/12 07:03:57;;;;;;;9.30;7.57;;;20.90;99.90;;;;;;4163738;28;20215;-76
2021/06/12 07:05:59;;;;;;;11.07;8.20;;;20.90;99.90;;;;;;4160301;28;20247;-76
2021/06/12 07:08:00;;;;;;;9.93;7.63;;;20.90;99.90;;;;;;4160568;28;20215;-76
2021/06/12 07:10:01;;;;;;;10.47;7.50;;;20.90;99.90;;;;;;4160214;28;20216;-77
2021/06/12 07:12:03;;;;;;;10.50;7.67;;;21.00;99.90;;;;;;4166154;28;20231;-76
2021/06/12 07:14:06;;;;;;;9.30;7.30;;;21.00;99.90;;;;;;4165671;28;20792;-76
2021/06/12 07:16:07;;;;;;;10.33;7.30;;;21.00;99.90;;;;;;4163237;28;20304;-77
2021/06/12 07:18:08;;;;;;;10.77;7.47;;;21.00;99.90;;;;;;4164897;28;20238;-76
2021/06/12 07:20:10;;;;;;;9.13;6.93;;;21.10;99.90;;;;;;4151058;28;20218;-76
2021/06/12 07:22:11;;;;;;;9.97;7.63;;;21.10;99.90;;;;;;4164927;28;20201;-76
2021/06/12 07:24:12;;;;;;;9.07;7.30;;;21.10;99.90;;;;;;4164468;28;20575;-76
2021/06/12 07:26:14;;;;;;;8.37;6.90;;;21.20;99.90;;;;;;4165003;28;20209;-76
2021/06/12 07:28:16;;;;;;;9.73;7.13;;;21.30;99.90;;;;;;4153829;28;20599;-76
2021/06/12 07:30:18;;;;;;;9.73;7.73;;;21.30;99.90;;;;;;4162444;28;20220;-76
2021/06/12 07:32:20;;;;;;;11.07;7.50;;;21.40;99.90;;;;;;4164043;28;20584;-76
2021/06/12 07:34:21;;;;;;;8.90;6.60;;;21.50;99.90;;;;;;4164007;28;20682;-76
2021/06/12 07:36:23;;;;;;;11.67;7.93;;;21.50;99.90;;;;;;4151001;28;20222;-76
2021/06/12 07:38:24;;;;;;;10.33;7.17;;;21.60;99.90;;;;;;4159219;28;20217;-76
2021/06/12 07:40:25;;;;;;;8.10;6.80;;;21.70;99.90;;;;;;4161533;28;20214;-76
2021/06/12 07:42:27;;;;;;;10.73;7.03;;;21.80;99.90;;;;;;4161047;28;20223;-76
2021/06/12 07:44:28;;;;;;;10.23;7.37;;;22.00;99.90;;;;;;4162987;28;20218;-76
2021/06/12 07:46:31;;;;;;;11.37;7.57;;;22.10;99.90;;;;;;4165165;28;20210;-77
2021/06/12 07:48:32;;;;;;;9.50;7.20;;;22.30;99.30;;;;;;4162021;28;20649;-76
2021/06/12 07:50:33;;;;;;;10.93;7.77;;;22.30;98.90;;;;;;4162960;28;20207;-77
2021/06/12 07:52:35;;;;;;;10.90;7.47;;;22.40;99.20;;;;;;4163537;28;20211;-76
2021/06/12 07:54:36;;;;;;;10.97;7.30;;;22.50;99.40;;;;;;4156059;28;20235;-76
2021/06/12 07:56:37;;;;;;;10.23;7.40;;;22.50;99.30;;;;;;4164373;28;20704;-76
2021/06/12 07:58:38;;;;;;;10.23;7.50;;;22.60;99.10;;;;;;4155426;28;20230;-77
2021/06/12 08:00:40;;;;;;;9.43;7.13;;;22.70;99.20;;;;;;4148974;28;20213;-77
2021/06/12 08:02:42;;;;;;;12.13;7.27;;;22.70;99.20;;;;;;4158652;28;20576;-77
2021/06/12 08:04:44;;;;;;;8.70;7.13;;;22.80;99.40;;;;;;4151043;28;20739;-76
2021/06/12 08:06:45;;;;;;;9.53;7.30;;;22.80;99.10;;;;;;4163499;28;20217;-76
2021/06/12 08:08:46;;;;;;;9.13;7.10;;;22.80;98.80;;;;;;4164016;28;20215;-76
2021/06/12 08:10:48;;;;;;;9.43;7.27;;;22.90;98.80;;;;;;4164091;28;20208;-76
2021/06/12 08:12:49;;;;;;;10.60;7.63;;;22.90;98.90;;;;;;4154989;28;20216;-76
2021/06/12 08:14:51;;;;;;;10.83;7.83;;;23.00;98.50;;;;;;4163281;28;20236;-78
2021/06/12 08:16:52;;;;;;;9.60;7.50;;;23.00;98.20;;;;;;4163642;28;20696;-77
2021/06/12 08:18:55;;;;;;;13.57;7.20;;;23.10;98.40;;;;;;4163762;28;20214;-77
2021/06/12 08:20:58;;;;;;;10.43;7.30;;;23.10;98.10;;;;;;4164322;28;20240;-77
2021/06/12 08:23:00;;;;;;;8.83;6.63;;;23.10;98.10;;;;;;4153365;28;20263;-76
2021/06/12 08:25:01;;;;;;;8.97;7.33;;;23.10;98.00;;;;;;4162961;28;20242;-76
2021/06/12 08:27:02;;;;;;;11.63;7.03;;;23.10;97.70;;;;;;4164038;28;20662;-76
2021/06/12 08:29:03;;;;;;;7.60;6.43;;;23.20;97.70;;;;;;4163747;28;20250;-77
2021/06/12 08:31:06;;;;;;;9.70;6.93;;;23.20;97.60;;;;;;4158557;28;20217;-76
2021/06/12 08:33:09;;;;;;;9.83;6.53;;;23.30;97.70;;;;;;4164036;28;20230;-77
2021/06/12 08:35:12;;;;;;;9.07;6.77;;;23.40;97.60;;;;;;4163502;28;20231;-77
2021/06/12 08:37:13;;;;;;;11.20;6.93;;;23.50;97.20;;;;;;4162432;28;20291;-77
2021/06/12 08:39:14;;;;;;;8.77;6.53;;;23.60;95.10;;;;;;4159158;28;20206;-76
2021/06/12 08:41:16;;;;;;;8.23;6.07;;;23.60;94.30;;;;;;4151136;28;20694;-77
2021/06/12 08:43:26;;;;;;;13.67;6.40;;;23.60;94.50;;;;;;4146407;28;20265;-77
2021/06/12 08:45:29;;;;;;;8.63;5.73;;;23.70;94.10;;;;;;4161065;28;20623;-77
2021/06/12 08:47:35;;;;;;;9.37;6.20;;;23.80;94.20;;;;;;4164401;28;20211;-77
2021/06/12 08:49:37;;;;;;;10.23;5.93;;;23.80;93.70;;;;;;4163251;28;20309;-77
2021/06/12 08:51:40;;;;;;;7.73;6.33;;;23.90;93.30;;;;;;4162400;28;20218;-76
2021/06/12 08:53:41;;;;;;;8.83;6.13;;;23.90;93.10;;;;;;4162870;28;20205;-76
2021/06/12 08:55:43;;;;;;;8.77;6.60;;;23.90;93.70;;;;;;4163209;28;20234;-76
2021/06/12 08:57:45;;;;;;;7.67;6.37;;;23.90;93.40;;;;;;4159815;28;20238;-76
2021/06/12 08:59:51;;;;;;;7.20;5.70;;;23.80;94.10;;;;;;4158880;28;20214;-77
2021/06/12 09:01:52;;;;;;;9.80;6.40;;;23.80;94.30;;;;;;4163662;28;20206;-77
2021/06/12 09:03:53;;;;;;;9.10;6.77;;;23.90;94.00;;;;;;4162364;28;20982;-77
2021/06/12 09:05:56;;;;;;;9.27;6.80;;;23.90;93.60;;;;;;4180693;22;20237;-75
2021/06/12 09:08:07;;;;;;;13.20;7.27;;;23.90;93.10;;;;;;4164851;28;20649;-74
2021/06/12 09:10:09;;;;;;;8.47;6.43;;;23.80;93.80;;;;;;4180337;28;20220;-75
2021/06/12 09:12:10;;;;;;;7.83;6.30;;;23.80;94.40;;;;;;4180997;28;20209;-74
2021/06/12 09:14:14;;;;;;;11.03;6.20;;;23.90;94.20;;;;;;4173624;28;20216;-75
2021/06/12 09:16:30;;;;;;;9.53;6.57;;;23.90;93.60;;;;;;4173701;28;20238;-75
2021/06/12 09:18:37;;;;;;;9.33;6.13;;;23.90;93.30;;;;;;4171724;28;20206;-75
2021/06/12 09:20:44;;;;;;;8.67;6.00;;;24.00;92.50;;;;;;4179286;28;20270;-75
2021/06/12 09:22:45;;;;;;;8.20;6.37;;;24.00;92.70;;;;;;4173043;28;20221;-76
2021/06/12 09:24:50;;;;;;;10.10;6.30;;;24.00;91.90;;;;;;4163377;28;20649;-76
2021/06/12 09:26:56;;;;;;;7.13;5.33;;;24.10;92.00;;;;;;4176834;28;20216;-76
2021/06/12 09:29:02;;;;;;;7.87;5.97;;;24.10;92.20;;;;;;4173163;28;20221;-76
2021/06/12 09:31:18;;;;;;;6.83;4.93;;;24.20;92.20;;;;;;4177407;28;20210;-76
2021/06/12 09:33:34;;;;;;;4.73;4.00;;;24.20;90.60;;;;;;4178302;28;20236;-76
2021/06/12 09:35:37;;;;;;;7.50;4.30;;;24.30;90.70;;;;;;4174362;28;20233;-76
2021/06/12 09:37:40;;;;;;;6.23;3.77;;;24.30;90.10;;;;;;4178781;28;20233;-75
2021/06/12 09:39:41;;;;;;;4.20;3.77;;;24.30;90.20;;;;;;4177793;28;20217;-75
2021/06/12 09:41:47;;;;;;;5.37;3.83;;;24.30;90.00;;;;;;4171175;28;20438;-76
2021/06/12 09:43:49;;;;;;;4.87;3.70;;;24.20;90.20;;;;;;4178689;28;20262;-76
2021/06/12 09:45:50;;;;;;;4.93;3.73;;;24.10;89.80;;;;;;4178536;28;20229;-76
2021/06/12 09:47:52;;;;;;;6.33;3.80;;;24.00;90.50;;;;;;4178915;28;20209;-76
2021/06/12 09:50:00;;;;;;;5.40;3.83;;;24.00;90.40;;;;;;4164976;28;20674;-76
2021/06/12 09:52:07;;;;;;;5.30;3.67;;;23.90;90.70;;;;;;4167477;28;20304;-76
2021/06/12 09:54:08;;;;;;;6.00;3.77;;;24.00;90.70;;;;;;4179128;28;20220;-76
2021/06/12 09:56:10;;;;;;;9.57;4.17;;;24.00;90.40;;;;;;4181817;28;20275;-76
2021/06/12 09:58:14;;;;;;;7.30;3.90;;;24.00;90.00;;;;;;4179311;28;20260;-76
2021/06/12 10:00:16;;;;;;;5.60;3.60;;;24.00;89.20;;;;;;4176908;28;20216;-76
2021/06/12 10:02:35;;;;;;;4.13;3.17;;;24.10;88.90;;;;;;4181899;28;20220;-76
2021/06/12 10:04:36;;;;;;;6.80;4.00;;;24.30;88.00;;;;;;4182359;28;20671;-76
2021/06/12 10:06:38;;;;;;;5.60;3.43;;;24.40;86.20;;;;;;4181940;28;20251;-76
2021/06/12 10:08:40;;;;;;;4.80;3.53;;;24.50;87.00;;;;;;4180948;28;20214;-76
2021/06/12 10:10:48;;;;;;;6.77;3.50;;;24.60;87.50;;;;;;4166138;28;20228;-76
2021/06/12 10:12:50;;;;;;;5.63;3.23;;;24.70;85.50;;;;;;4166086;28;20217;-76
2021/06/12 10:14:52;;;;;;;7.17;3.07;;;24.80;86.10;;;;;;4182845;28;20598;-77
2021/06/12 10:16:55;;;;;;;4.60;3.20;;;24.90;85.50;;;;;;4181073;28;20238;-76
2021/06/12 10:18:58;;;;;;;6.03;3.43;;;25.00;84.70;;;;;;4176633;28;20211;-76
2021/06/12 10:21:00;;;;;;;4.33;3.37;;;25.00;84.60;;;;;;4182151;28;20459;-76
2021/06/12 10:23:02;;;;;;;4.47;3.40;;;25.10;84.60;;;;;;4181519;28;20214;-76
2021/06/12 10:25:04;;;;;;;7.43;3.53;;;25.20;83.00;;;;;;4181087;28;20734;-76
2021/06/12 10:27:07;;;;;;;5.07;3.30;;;25.20;80.20;;;;;;4181201;28;20207;-76